Time;durP1;ratioP1;P1;durP2;ratioP2;P2;SDS_P1;SDS_P2;PMS_P1;PMS_P2;Temp;Humidity;BMP_temperature;BMP_pressure;BME280_temperature;BME280_humidity;BME280_pressure;Samples;Min_cycle;Max_cycle;Signal;HPM_P1;HPM_P2
2021/04/28 00:00:33;;;;;;;3.28;1.73;;;9.30;42.20;;;;;;2062995;28;20031;-86
2021/04/28 00:01:34;;;;;;;4.25;1.85;;;9.30;42.30;;;;;;2068545;28;20086;-86
2021/04/28 00:02:35;;;;;;;2.72;1.73;;;9.30;42.20;;;;;;2069299;28;20121;-87
2021/04/28 00:03:36;;;;;;;4.03;2.10;;;9.20;42.20;;;;;;2069555;28;20057;-87
2021/04/28 00:04:36;;;;;;;3.33;2.00;;;9.20;42.30;;;;;;2080083;28;20025;-87
2021/04/28 00:05:39;;;;;;;3.63;1.60;;;9.20;42.30;;;;;;2074593;28;20040;-87
2021/04/28 00:06:40;;;;;;;2.92;1.88;;;9.30;42.40;;;;;;2073884;28;20030;-87
2021/04/28 00:07:41;;;;;;;3.83;2.10;;;9.20;43.00;;;;;;2070367;28;20045;-87
2021/04/28 00:08:42;;;;;;;4.88;2.05;;;9.20;42.40;;;;;;2075618;28;20030;-86
2021/04/28 00:09:43;;;;;;;3.25;1.85;;;9.20;42.40;;;;;;2066686;28;20034;-87
2021/04/28 00:10:43;;;;;;;2.88;1.80;;;9.20;42.50;;;;;;2062961;28;20061;-87
2021/04/28 00:11:44;;;;;;;2.58;1.63;;;9.20;42.50;;;;;;2086189;28;20029;-88
2021/04/28 00:12:45;;;;;;;3.50;1.55;;;9.10;42.40;;;;;;2075652;28;20104;-88
2021/04/28 00:13:46;;;;;;;2.72;1.50;;;9.10;42.40;;;;;;2079302;28;20033;-88
2021/04/28 00:14:46;;;;;;;2.30;1.60;;;9.10;42.40;;;;;;2074791;28;20029;-88
2021/04/28 00:15:49;;;;;;;3.38;1.65;;;9.10;42.50;;;;;;2089300;28;20070;-87
2021/04/28 00:16:50;;;;;;;4.70;1.98;;;9.10;42.50;;;;;;2075201;28;20018;-87
2021/04/28 00:17:52;;;;;;;2.17;1.30;;;9.10;42.60;;;;;;2077571;28;20033;-87
2021/04/28 00:18:53;;;;;;;3.08;1.67;;;9.10;42.60;;;;;;2077572;28;20048;-88
2021/04/28 00:19:53;;;;;;;2.97;1.80;;;9.10;42.70;;;;;;2087091;28;20025;-88
2021/04/28 00:20:54;;;;;;;2.55;1.70;;;9.10;42.70;;;;;;2073592;28;20080;-88
2021/04/28 00:21:55;;;;;;;3.10;1.60;;;9.10;42.70;;;;;;2079165;28;20052;-88
2021/04/28 00:22:56;;;;;;;2.63;1.58;;;9.10;42.70;;;;;;2077249;28;20045;-88
2021/04/28 00:23:57;;;;;;;4.13;1.60;;;9.10;42.70;;;;;;2078244;28;20042;-88
2021/04/28 00:24:58;;;;;;;2.85;1.60;;;9.00;42.70;;;;;;2085489;28;20025;-88
2021/04/28 00:25:58;;;;;;;2.70;1.67;;;9.10;42.90;;;;;;2076991;28;20025;-87
2021/04/28 00:26:59;;;;;;;2.58;1.58;;;9.00;42.80;;;;;;2078794;28;20041;-87
2021/04/28 00:28:00;;;;;;;2.55;1.60;;;9.00;42.90;;;;;;2077852;28;20033;-88
2021/04/28 00:29:01;;;;;;;2.97;1.48;;;9.00;42.90;;;;;;2069288;28;20455;-87
2021/04/28 00:30:05;;;;;;;3.05;1.58;;;9.00;42.90;;;;;;2066453;28;20031;-87
2021/04/28 00:31:06;;;;;;;3.92;1.63;;;9.00;43.00;;;;;;2085676;28;20030;-87
2021/04/28 00:32:06;;;;;;;3.05;1.70;;;9.00;43.00;;;;;;2084396;28;20128;-87
2021/04/28 00:33:07;;;;;;;3.20;1.70;;;9.00;43.00;;;;;;2078595;28;20109;-87
2021/04/28 00:34:08;;;;;;;3.47;1.95;;;9.00;43.10;;;;;;2077022;28;20032;-87
2021/04/28 00:35:14;;;;;;;4.32;1.40;;;8.90;43.10;;;;;;2087429;28;20021;-87
2021/04/28 00:36:14;;;;;;;3.63;1.70;;;8.90;43.10;;;;;;2074281;28;20029;-87
2021/04/28 00:37:15;;;;;;;2.47;1.30;;;8.90;43.10;;;;;;2087953;28;20057;-87
2021/04/28 00:38:16;;;;;;;2.65;1.60;;;8.90;43.10;;;;;;2081112;28;20136;-88
2021/04/28 00:39:16;;;;;;;3.00;1.42;;;8.90;43.20;;;;;;2076309;28;20037;-87
2021/04/28 00:40:35;;;;;;;3.08;1.60;;;8.90;43.20;;;;;;2086963;28;20137;-87
2021/04/28 00:41:35;;;;;;;4.10;1.50;;;8.90;43.30;;;;;;2083539;28;20021;-87
2021/04/28 00:42:36;;;;;;;3.05;1.60;;;8.90;43.30;;;;;;2079342;28;20060;-87
2021/04/28 00:43:37;;;;;;;2.35;1.40;;;8.90;43.30;;;;;;2076392;28;20025;-87
2021/04/28 00:44:38;;;;;;;3.60;1.70;;;8.80;43.30;;;;;;2090051;28;20040;-87
2021/04/28 00:45:39;;;;;;;2.50;1.60;;;8.90;43.40;;;;;;2086876;28;20061;-87
2021/04/28 00:46:40;;;;;;;2.30;1.40;;;8.90;43.40;;;;;;2084269;28;20043;-86
2021/04/28 00:47:41;;;;;;;3.13;1.63;;;8.80;43.40;;;;;;2075601;28;20037;-86
2021/04/28 00:48:42;;;;;;;3.08;1.52;;;8.80;43.40;;;;;;2071096;28;20129;-86
2021/04/28 00:49:42;;;;;;;2.65;1.65;;;8.80;43.50;;;;;;2076925;28;20072;-87
2021/04/28 00:50:45;;;;;;;3.45;1.80;;;8.80;43.50;;;;;;2080754;28;20471;-85
2021/04/28 00:51:47;;;;;;;3.20;1.85;;;8.80;43.50;;;;;;2079289;28;20033;-86
2021/04/28 00:52:48;;;;;;;3.83;1.52;;;8.80;43.50;;;;;;2086567;28;20537;-86
2021/04/28 00:53:48;;;;;;;4.43;1.50;;;8.80;43.60;;;;;;2084804;28;20068;-86
2021/04/28 00:54:50;;;;;;;2.50;1.60;;;8.70;43.60;;;;;;2085317;28;20029;-86
2021/04/28 00:55:52;;;;;;;4.05;1.80;;;8.70;43.70;;;;;;2093874;28;20052;-86
2021/04/28 00:56:56;;;;;;;2.50;1.35;;;8.70;43.70;;;;;;2095782;28;20392;-85
2021/04/28 00:57:58;;;;;;;2.22;1.38;;;8.70;43.80;;;;;;2084624;28;20029;-86
2021/04/28 00:58:58;;;;;;;2.97;1.63;;;8.70;43.80;;;;;;2085318;28;20076;-86
2021/04/28 01:00:01;;;;;;;3.25;1.65;;;8.70;43.80;;;;;;2085308;28;20429;-86
2021/04/28 01:01:02;;;;;;;2.58;1.60;;;8.70;43.80;;;;;;2075028;28;21953;-87
2021/04/28 01:02:02;;;;;;;3.05;1.63;;;8.60;43.80;;;;;;2078397;28;20033;-86
2021/04/28 01:03:03;;;;;;;3.10;1.60;;;8.60;43.90;;;;;;2085660;28;20049;-87
2021/04/28 01:04:05;;;;;;;2.45;1.60;;;8.60;43.90;;;;;;2093243;28;20060;-87
2021/04/28 01:05:07;;;;;;;3.00;1.63;;;8.60;44.00;;;;;;2094423;28;20036;-86
2021/04/28 01:06:08;;;;;;;2.80;1.75;;;8.60;44.00;;;;;;2086578;28;20037;-86
2021/04/28 01:07:10;;;;;;;3.13;1.52;;;8.60;44.00;;;;;;2077466;28;20062;-86
2021/04/28 01:08:15;;;;;;;2.83;1.70;;;8.60;44.10;;;;;;2084005;28;20132;-86
2021/04/28 01:09:18;;;;;;;4.22;1.65;;;8.50;44.00;;;;;;2080610;28;20025;-85
2021/04/28 01:10:22;;;;;;;4.45;1.95;;;8.50;44.10;;;;;;2088689;28;20403;-85
2021/04/28 01:11:25;;;;;;;3.25;1.70;;;8.50;44.10;;;;;;2096605;28;20024;-86
2021/04/28 01:12:26;;;;;;;2.85;1.65;;;8.50;44.20;;;;;;2094534;28;20024;-86
2021/04/28 01:13:27;;;;;;;3.55;1.75;;;8.50;44.20;;;;;;2090646;28;20029;-85
2021/04/28 01:14:27;;;;;;;2.80;1.48;;;8.50;44.30;;;;;;2066677;28;20445;-86
2021/04/28 01:15:31;;;;;;;2.63;1.50;;;8.40;44.20;;;;;;2054934;28;20038;-86
2021/04/28 01:16:33;;;;;;;2.90;1.67;;;8.40;44.30;;;;;;2070900;28;20029;-86
2021/04/28 01:17:34;;;;;;;3.00;1.60;;;8.40;44.30;;;;;;2078159;28;20032;-86
2021/04/28 01:18:35;;;;;;;3.95;1.70;;;8.40;44.40;;;;;;2057777;28;20023;-87
2021/04/28 01:19:38;;;;;;;2.92;1.63;;;8.40;44.40;;;;;;2057857;28;20038;-86
2021/04/28 01:20:40;;;;;;;3.15;1.65;;;8.40;44.50;;;;;;2079863;28;20026;-87
2021/04/28 01:21:41;;;;;;;3.85;1.83;;;8.40;44.50;;;;;;2085103;28;20049;-87
2021/04/28 01:22:43;;;;;;;2.72;1.70;;;8.40;44.50;;;;;;2077287;28;20033;-87
2021/04/28 01:23:43;;;;;;;4.28;1.60;;;8.30;44.50;;;;;;2081562;28;20054;-88
2021/04/28 01:24:44;;;;;;;3.85;1.98;;;8.30;44.50;;;;;;2080067;28;20407;-87
2021/04/28 01:25:45;;;;;;;2.65;1.85;;;8.30;44.50;;;;;;2066597;28;20042;-87
2021/04/28 01:26:52;;;;;;;3.30;1.90;;;8.30;44.60;;;;;;2075276;28;20057;-86
2021/04/28 01:28:24;;;;;;;2.97;1.50;;;8.30;44.60;;;;;;2083317;28;20144;-87
2021/04/28 01:29:25;;;;;;;2.35;1.50;;;8.30;44.70;;;;;;2088981;28;20029;-87
2021/04/28 01:30:37;;;;;;;2.60;1.50;;;8.30;44.70;;;;;;2076928;28;20144;-87
2021/04/28 01:31:38;;;;;;;2.78;1.45;;;8.20;44.70;;;;;;2084758;28;20039;-88
2021/04/28 01:32:48;;;;;;;2.97;1.60;;;8.20;44.70;;;;;;2073495;28;20089;-87
2021/04/28 01:33:54;;;;;;;3.28;1.90;;;8.20;44.80;;;;;;2072109;28;20453;-87
2021/04/28 01:34:56;;;;;;;3.00;1.80;;;8.20;44.90;;;;;;2081890;28;20024;-87
2021/04/28 01:35:58;;;;;;;3.10;1.90;;;8.20;44.80;;;;;;2079959;28;20427;-88
2021/04/28 01:37:01;;;;;;;3.63;1.95;;;8.20;45.00;;;;;;2087091;28;20052;-88
2021/04/28 01:38:04;;;;;;;3.38;1.60;;;8.10;45.00;;;;;;2083429;28;20053;-88
2021/04/28 01:39:10;;;;;;;3.53;1.70;;;8.10;45.00;;;;;;2084826;28;20052;-88
2021/04/28 01:40:13;;;;;;;3.17;1.90;;;8.10;45.10;;;;;;2094917;28;20504;-88
2021/04/28 01:41:14;;;;;;;3.40;1.92;;;8.00;45.70;;;;;;2095329;28;20031;-88
2021/04/28 01:42:16;;;;;;;3.22;1.77;;;8.00;45.20;;;;;;2096101;28;20513;-87
2021/04/28 01:43:18;;;;;;;2.65;1.58;;;8.00;45.20;;;;;;2089457;28;20053;-88
2021/04/28 01:44:21;;;;;;;2.97;1.73;;;8.00;45.80;;;;;;2082957;28;20025;-88
2021/04/28 01:45:23;;;;;;;3.33;1.65;;;8.00;45.30;;;;;;2081403;28;20033;-87
2021/04/28 01:46:28;;;;;;;4.00;1.90;;;8.00;45.40;;;;;;2094668;28;20020;-88
2021/04/28 01:47:29;;;;;;;3.60;1.88;;;8.00;45.40;;;;;;2087732;28;20033;-88
2021/04/28 01:48:31;;;;;;;3.33;1.65;;;7.90;45.40;;;;;;2088455;28;20017;-86
2021/04/28 01:49:32;;;;;;;2.72;1.60;;;8.00;45.40;;;;;;2078286;28;20036;-87
2021/04/28 01:50:33;;;;;;;2.80;1.60;;;8.00;45.50;;;;;;2080691;28;20025;-88
2021/04/28 01:51:35;;;;;;;4.22;1.90;;;7.90;45.50;;;;;;2099238;28;20059;-88
2021/04/28 01:52:37;;;;;;;3.17;1.90;;;7.90;45.50;;;;;;2094560;28;20033;-87
2021/04/28 01:53:38;;;;;;;3.72;1.98;;;7.90;45.50;;;;;;2097965;28;20027;-87
2021/04/28 01:54:40;;;;;;;2.72;1.60;;;7.90;45.50;;;;;;2088341;28;20059;-87
2021/04/28 01:55:41;;;;;;;2.90;1.77;;;7.90;45.60;;;;;;2088056;28;20009;-87
2021/04/28 01:56:44;;;;;;;3.17;1.75;;;7.90;45.60;;;;;;2098648;28;20546;-87
2021/04/28 01:57:45;;;;;;;3.40;1.73;;;7.90;45.60;;;;;;2098070;28;20067;-87
2021/04/28 01:58:46;;;;;;;3.22;1.75;;;7.90;45.60;;;;;;2087745;28;20033;-87
2021/04/28 01:59:48;;;;;;;3.30;1.70;;;7.90;45.70;;;;;;2078777;28;20061;-88
2021/04/28 02:00:49;;;;;;;4.00;1.90;;;7.80;45.60;;;;;;2065183;28;20034;-87
2021/04/28 02:01:53;;;;;;;4.22;1.92;;;7.80;46.30;;;;;;2062874;28;20029;-88
2021/04/28 02:02:54;;;;;;;3.50;1.90;;;7.90;45.70;;;;;;2084830;28;20028;-88
2021/04/28 02:03:55;;;;;;;3.90;1.95;;;7.80;45.70;;;;;;2088719;28;20037;-87
2021/04/28 02:04:55;;;;;;;3.03;1.73;;;7.90;45.70;;;;;;2087832;28;20028;-88
2021/04/28 02:06:00;;;;;;;3.88;1.90;;;7.80;45.70;;;;;;2081063;28;20081;-88
2021/04/28 02:07:00;;;;;;;2.78;1.63;;;7.80;45.80;;;;;;2078127;28;20045;-87
2021/04/28 02:08:01;;;;;;;5.05;2.00;;;7.80;45.80;;;;;;2065534;28;20022;-87
2021/04/28 02:09:03;;;;;;;3.45;1.83;;;7.80;45.80;;;;;;2069965;28;20582;-87
2021/04/28 02:10:06;;;;;;;3.10;1.70;;;7.80;45.80;;;;;;2083029;28;20503;-87
2021/04/28 02:11:07;;;;;;;3.00;1.80;;;7.80;45.80;;;;;;2087433;28;20025;-87
2021/04/28 02:12:11;;;;;;;3.22;1.60;;;7.80;45.80;;;;;;2093427;28;20031;-86
2021/04/28 02:13:18;;;;;;;3.17;1.55;;;7.80;45.90;;;;;;2098266;28;20113;-86
2021/04/28 02:14:22;;;;;;;3.05;1.67;;;7.70;46.50;;;;;;2093581;28;20029;-87
2021/04/28 02:15:24;;;;;;;3.17;1.58;;;7.70;45.90;;;;;;2081825;28;20034;-86
2021/04/28 02:16:28;;;;;;;3.70;1.70;;;7.70;45.90;;;;;;2089966;28;20063;-87
2021/04/28 02:17:30;;;;;;;3.08;1.70;;;7.70;45.90;;;;;;2094238;28;20104;-87
2021/04/28 02:18:31;;;;;;;4.93;1.52;;;7.70;46.00;;;;;;2082787;28;20101;-87
2021/04/28 02:19:32;;;;;;;4.18;1.90;;;7.70;46.00;;;;;;2080511;28;20034;-87
2021/04/28 02:20:33;;;;;;;3.65;1.60;;;7.70;46.00;;;;;;2080926;28;20026;-87
2021/04/28 02:21:38;;;;;;;3.10;1.70;;;7.70;46.00;;;;;;2073354;28;20026;-87
2021/04/28 02:22:40;;;;;;;3.08;1.70;;;7.70;46.10;;;;;;2082683;28;20029;-87
2021/04/28 02:23:42;;;;;;;3.38;1.85;;;7.70;46.10;;;;;;2087082;28;20029;-87
2021/04/28 02:24:43;;;;;;;3.97;2.00;;;7.60;46.10;;;;;;2076259;28;20128;-87
2021/04/28 02:25:43;;;;;;;3.15;1.90;;;7.60;46.10;;;;;;2083470;28;20033;-87
2021/04/28 02:26:45;;;;;;;3.33;2.00;;;7.60;46.10;;;;;;2084470;28;20827;-86
2021/04/28 02:27:52;;;;;;;4.28;2.00;;;7.60;46.20;;;;;;2087783;28;20017;-87
2021/04/28 02:28:53;;;;;;;3.53;1.98;;;7.60;46.20;;;;;;2082502;28;20029;-86
2021/04/28 02:29:55;;;;;;;2.72;1.63;;;7.60;46.30;;;;;;2069842;28;20419;-86
2021/04/28 02:30:56;;;;;;;3.33;2.03;;;7.60;46.30;;;;;;2079900;28;20030;-87
2021/04/28 02:31:56;;;;;;;4.18;1.83;;;7.60;46.60;;;;;;2070819;28;20550;-87
2021/04/28 02:32:57;;;;;;;3.17;1.80;;;7.60;46.40;;;;;;2059440;28;20500;-87
2021/04/28 02:34:01;;;;;;;3.83;1.67;;;7.60;46.40;;;;;;2050118;28;20492;-88
2021/04/28 02:35:02;;;;;;;3.47;1.77;;;7.60;46.40;;;;;;2074362;28;20483;-87
2021/04/28 02:36:03;;;;;;;3.60;1.80;;;7.60;46.40;;;;;;2084590;28;20036;-87
2021/04/28 02:37:05;;;;;;;3.78;2.03;;;7.50;46.40;;;;;;2082180;28;20077;-87
2021/04/28 02:38:13;;;;;;;3.40;1.90;;;7.50;46.40;;;;;;2081056;28;20080;-87
2021/04/28 02:39:22;;;;;;;4.70;1.83;;;7.50;46.40;;;;;;2086648;28;20498;-86
2021/04/28 02:40:23;;;;;;;3.55;2.15;;;7.50;46.40;;;;;;2084946;28;20021;-86
2021/04/28 02:41:24;;;;;;;3.60;1.90;;;7.50;46.40;;;;;;2092608;28;20469;-86
2021/04/28 02:42:26;;;;;;;3.20;1.67;;;7.50;46.50;;;;;;2089111;28;20044;-87
2021/04/28 02:43:28;;;;;;;3.20;1.52;;;7.50;46.50;;;;;;2089000;28;20026;-86
2021/04/28 02:44:31;;;;;;;3.58;1.77;;;7.40;46.50;;;;;;2094239;28;20029;-86
2021/04/28 02:45:31;;;;;;;3.75;1.70;;;7.50;46.60;;;;;;2085813;28;20064;-86
2021/04/28 02:46:34;;;;;;;3.00;1.85;;;7.40;46.60;;;;;;2080389;28;20510;-86
2021/04/28 02:47:35;;;;;;;3.80;1.85;;;7.40;46.60;;;;;;2081008;28;20030;-86
2021/04/28 02:48:38;;;;;;;3.72;2.03;;;7.40;46.70;;;;;;2081516;28;20116;-86
2021/04/28 02:49:40;;;;;;;3.95;1.52;;;7.40;46.70;;;;;;2084407;28;20021;-86
2021/04/28 02:50:41;;;;;;;2.85;1.80;;;7.40;46.70;;;;;;2090845;28;20048;-86
2021/04/28 02:51:43;;;;;;;3.25;1.77;;;7.40;47.30;;;;;;2083969;28;20030;-86
2021/04/28 02:52:45;;;;;;;3.22;2.00;;;7.40;46.70;;;;;;2070061;28;20075;-86
2021/04/28 02:53:47;;;;;;;2.97;1.80;;;7.40;46.70;;;;;;2081841;28;20449;-86
2021/04/28 02:54:49;;;;;;;2.92;1.60;;;7.40;46.80;;;;;;2096576;28;20021;-85
2021/04/28 02:55:59;;;;;;;3.38;1.70;;;7.40;46.80;;;;;;2095771;28;20024;-86
2021/04/28 02:56:59;;;;;;;3.28;1.73;;;7.40;47.50;;;;;;2083389;28;20039;-85
2021/04/28 02:58:00;;;;;;;3.55;1.90;;;7.30;46.80;;;;;;2062451;28;20064;-85
2021/04/28 02:59:02;;;;;;;3.17;1.83;;;7.30;46.90;;;;;;2057978;28;20035;-84
2021/04/28 03:00:08;;;;;;;3.80;1.73;;;7.30;46.90;;;;;;2066292;28;20124;-86
2021/04/28 03:01:10;;;;;;;3.25;1.88;;;7.30;46.90;;;;;;2076554;28;20034;-86
2021/04/28 03:02:10;;;;;;;3.35;1.88;;;7.30;47.00;;;;;;2085318;28;20032;-86
2021/04/28 03:03:15;;;;;;;3.30;1.90;;;7.30;47.00;;;;;;2079881;28;20527;-86
2021/04/28 03:04:17;;;;;;;3.55;1.95;;;7.30;47.00;;;;;;2079150;28;20472;-86
2021/04/28 03:05:20;;;;;;;3.90;2.00;;;7.30;47.00;;;;;;2077697;28;20044;-86
2021/04/28 03:06:21;;;;;;;3.72;2.15;;;7.20;47.00;;;;;;2074744;28;20029;-86
2021/04/28 03:07:22;;;;;;;3.35;1.80;;;7.20;47.10;;;;;;2068921;28;20049;-86
2021/04/28 03:08:23;;;;;;;3.53;1.80;;;7.20;47.10;;;;;;2079673;28;20053;-86
2021/04/28 03:09:24;;;;;;;3.00;1.85;;;7.20;47.10;;;;;;2087221;28;20068;-85
2021/04/28 03:10:24;;;;;;;4.50;1.95;;;7.20;47.20;;;;;;2079039;28;20045;-85
2021/04/28 03:11:25;;;;;;;2.63;1.70;;;7.20;47.20;;;;;;2079643;28;21643;-85
2021/04/28 03:12:27;;;;;;;3.53;1.63;;;7.20;47.20;;;;;;2096794;28;20455;-86
2021/04/28 03:13:28;;;;;;;3.55;1.92;;;7.20;47.20;;;;;;2084802;28;20029;-86
2021/04/28 03:14:28;;;;;;;3.47;1.92;;;7.20;47.20;;;;;;2072174;28;20030;-85
2021/04/28 03:15:29;;;;;;;3.70;1.60;;;7.20;47.20;;;;;;2071762;28;20040;-85
2021/04/28 03:16:31;;;;;;;3.03;1.60;;;7.10;47.20;;;;;;2071610;28;20472;-86
2021/04/28 03:17:31;;;;;;;5.07;1.95;;;7.10;47.30;;;;;;2064206;28;20041;-85
2021/04/28 03:18:32;;;;;;;3.00;1.70;;;7.10;47.30;;;;;;2072376;28;20465;-85
2021/04/28 03:19:34;;;;;;;3.20;1.65;;;7.10;47.30;;;;;;2088591;28;20036;-85
2021/04/28 03:20:35;;;;;;;2.95;1.70;;;7.10;47.40;;;;;;2084955;28;20127;-85
2021/04/28 03:21:40;;;;;;;3.38;1.70;;;7.10;47.50;;;;;;2074255;28;20029;-85
2021/04/28 03:22:41;;;;;;;3.58;2.03;;;7.10;47.50;;;;;;2077204;28;20029;-86
2021/04/28 03:23:42;;;;;;;3.13;1.90;;;7.10;47.60;;;;;;2083965;28;20084;-85
2021/04/28 03:24:43;;;;;;;3.90;1.80;;;7.00;47.50;;;;;;2084495;28;20028;-86
2021/04/28 03:25:44;;;;;;;2.70;1.70;;;7.00;47.50;;;;;;2082052;28;20476;-86
2021/04/28 03:26:44;;;;;;;3.33;1.98;;;7.00;47.50;;;;;;2076000;28;20037;-85
2021/04/28 03:27:45;;;;;;;3.13;1.85;;;7.00;47.50;;;;;;2079669;28;20077;-85
2021/04/28 03:28:45;;;;;;;3.33;1.70;;;7.10;47.60;;;;;;2079921;28;20491;-85
2021/04/28 03:29:47;;;;;;;3.67;2.10;;;7.00;47.50;;;;;;2074897;28;20172;-86
2021/04/28 03:30:47;;;;;;;3.20;1.85;;;7.00;47.50;;;;;;2076173;28;20026;-86
2021/04/28 03:31:48;;;;;;;3.80;1.73;;;7.00;47.60;;;;;;2069327;28;20455;-85
2021/04/28 03:32:49;;;;;;;3.08;1.77;;;7.00;47.60;;;;;;2079614;28;20589;-85
2021/04/28 03:33:49;;;;;;;3.33;2.00;;;7.00;47.60;;;;;;2080151;28;20378;-85
2021/04/28 03:34:50;;;;;;;3.80;1.90;;;7.00;47.70;;;;;;2078747;28;20060;-85
2021/04/28 03:35:50;;;;;;;3.83;1.88;;;7.00;47.70;;;;;;2085417;28;20037;-86
2021/04/28 03:36:51;;;;;;;5.10;2.20;;;7.00;47.70;;;;;;2076695;28;20032;-86
2021/04/28 03:37:52;;;;;;;3.92;2.00;;;7.00;47.80;;;;;;2072000;28;20054;-86
2021/04/28 03:38:53;;;;;;;2.78;1.90;;;7.00;47.80;;;;;;2083295;28;20026;-85
2021/04/28 03:39:54;;;;;;;3.55;2.15;;;6.90;47.80;;;;;;2090288;28;20029;-86
2021/04/28 03:40:54;;;;;;;3.35;2.05;;;6.90;47.90;;;;;;2086454;28;20112;-86
2021/04/28 03:41:55;;;;;;;3.50;2.05;;;6.90;47.90;;;;;;2075047;28;20035;-85
2021/04/28 03:42:56;;;;;;;3.45;2.08;;;6.90;48.00;;;;;;2077100;28;20021;-86
2021/04/28 03:43:57;;;;;;;3.42;2.20;;;6.90;48.00;;;;;;2077198;28;20030;-86
2021/04/28 03:44:57;;;;;;;4.32;2.25;;;6.90;48.00;;;;;;2075352;28;20391;-85
2021/04/28 03:45:58;;;;;;;4.07;1.75;;;6.90;48.10;;;;;;2073182;28;20042;-86
2021/04/28 03:46:59;;;;;;;4.07;2.00;;;6.90;48.10;;;;;;2086523;28;20407;-85
2021/04/28 03:47:59;;;;;;;3.78;2.10;;;6.90;48.10;;;;;;2069512;28;20408;-85
2021/04/28 03:49:00;;;;;;;3.50;2.00;;;6.80;48.10;;;;;;2086370;28;20029;-86
2021/04/28 03:50:01;;;;;;;2.67;1.80;;;6.80;48.20;;;;;;2085150;28;20030;-86
2021/04/28 03:51:02;;;;;;;3.22;2.00;;;6.80;48.30;;;;;;2082264;28;20040;-86
2021/04/28 03:52:03;;;;;;;3.35;2.15;;;6.80;48.30;;;;;;2076837;28;20112;-86
2021/04/28 03:53:04;;;;;;;4.22;2.00;;;6.80;48.30;;;;;;2071380;28;20026;-86
2021/04/28 03:54:05;;;;;;;3.60;1.83;;;6.80;48.40;;;;;;2063880;28;20026;-86
2021/04/28 03:55:07;;;;;;;4.53;2.10;;;6.70;48.30;;;;;;2069079;28;20034;-85
2021/04/28 03:56:07;;;;;;;5.57;2.13;;;6.70;48.40;;;;;;2075568;28;20037;-86
2021/04/28 03:57:10;;;;;;;3.03;2.00;;;6.70;48.40;;;;;;2065416;28;20042;-86
2021/04/28 03:58:10;;;;;;;3.50;2.17;;;6.70;48.50;;;;;;2071480;28;20080;-86
2021/04/28 03:59:11;;;;;;;3.35;2.00;;;6.70;48.50;;;;;;2085461;28;20126;-85
2021/04/28 04:00:12;;;;;;;3.17;1.80;;;6.70;48.60;;;;;;2084102;28;20029;-85
2021/04/28 04:01:15;;;;;;;3.50;1.90;;;6.60;48.50;;;;;;2079304;28;20021;-85
2021/04/28 04:02:16;;;;;;;2.83;1.63;;;6.70;48.60;;;;;;2074571;28;20516;-85
2021/04/28 04:03:17;;;;;;;3.88;2.10;;;6.70;48.70;;;;;;2077932;28;20067;-85
2021/04/28 04:04:18;;;;;;;4.03;2.20;;;6.60;48.60;;;;;;2077538;28;20156;-86
2021/04/28 04:05:18;;;;;;;3.67;1.92;;;6.60;48.70;;;;;;2069434;28;20218;-86
2021/04/28 04:06:19;;;;;;;2.90;1.75;;;6.60;48.70;;;;;;2071958;28;20034;-86
2021/04/28 04:07:20;;;;;;;3.15;1.95;;;6.60;48.70;;;;;;2076354;28;20037;-86
2021/04/28 04:08:20;;;;;;;3.67;1.92;;;6.60;48.80;;;;;;2076834;28;20131;-86
2021/04/28 04:09:21;;;;;;;3.78;2.08;;;6.60;48.70;;;;;;2072244;28;20577;-86
2021/04/28 04:10:22;;;;;;;4.53;2.17;;;6.60;48.80;;;;;;2063441;28;20061;-85
2021/04/28 04:11:23;;;;;;;3.75;1.92;;;6.60;48.80;;;;;;2067576;28;20034;-85
2021/04/28 04:12:23;;;;;;;3.83;2.13;;;6.60;49.40;;;;;;2069401;28;20057;-86
2021/04/28 04:13:24;;;;;;;4.70;1.90;;;6.60;48.80;;;;;;2076793;28;20033;-86
2021/04/28 04:14:24;;;;;;;3.97;1.90;;;6.60;48.80;;;;;;2074546;28;20073;-86
2021/04/28 04:15:25;;;;;;;4.28;2.50;;;6.70;48.80;;;;;;2074145;28;20538;-85
2021/04/28 04:16:26;;;;;;;3.40;2.00;;;6.70;48.80;;;;;;2071991;28;20061;-85
2021/04/28 04:17:27;;;;;;;4.38;2.13;;;6.70;48.80;;;;;;2055788;28;20066;-86
2021/04/28 04:18:27;;;;;;;4.60;2.13;;;6.70;48.80;;;;;;2071864;28;20068;-85
2021/04/28 04:19:28;;;;;;;5.15;2.13;;;6.70;48.80;;;;;;2074982;28;20090;-86
2021/04/28 04:20:29;;;;;;;3.70;1.90;;;6.60;48.80;;;;;;2071278;28;20053;-86
2021/04/28 04:21:29;;;;;;;3.33;1.80;;;6.70;48.90;;;;;;2069922;28;20057;-86
2021/04/28 04:22:30;;;;;;;3.88;1.92;;;6.60;48.90;;;;;;2069950;28;20534;-86
2021/04/28 04:23:31;;;;;;;3.38;1.92;;;6.60;48.90;;;;;;2070868;28;20516;-86
2021/04/28 04:24:31;;;;;;;3.72;2.08;;;6.60;48.90;;;;;;2080213;28;20086;-86
2021/04/28 04:25:32;;;;;;;4.15;1.90;;;6.60;49.00;;;;;;2077074;28;20171;-85
2021/04/28 04:26:33;;;;;;;3.10;1.83;;;6.60;49.00;;;;;;2071588;28;20036;-85
2021/04/28 04:27:34;;;;;;;3.67;2.00;;;6.60;49.00;;;;;;2076256;28;20030;-85
2021/04/28 04:28:35;;;;;;;3.20;1.83;;;6.60;49.00;;;;;;2080622;28;20456;-87
2021/04/28 04:29:36;;;;;;;3.72;1.80;;;6.60;49.00;;;;;;2087778;28;20036;-86
2021/04/28 04:30:37;;;;;;;4.72;2.03;;;6.60;49.00;;;;;;2081503;28;20044;-85
2021/04/28 04:31:37;;;;;;;3.83;1.90;;;6.60;49.10;;;;;;2071485;28;20092;-85
2021/04/28 04:32:38;;;;;;;3.42;1.83;;;6.60;49.10;;;;;;2077298;28;20411;-85
2021/04/28 04:33:38;;;;;;;3.40;1.90;;;6.60;49.10;;;;;;2078496;28;20072;-85
2021/04/28 04:34:39;;;;;;;3.13;1.88;;;6.60;49.10;;;;;;2088262;28;20028;-86
2021/04/28 04:35:40;;;;;;;3.60;2.05;;;6.60;49.10;;;;;;2083025;28;20064;-85
2021/04/28 04:36:40;;;;;;;3.33;1.80;;;6.60;49.70;;;;;;2076299;28;20511;-85
2021/04/28 04:37:41;;;;;;;4.68;1.83;;;6.60;49.10;;;;;;2080128;28;20094;-85
2021/04/28 04:38:41;;;;;;;4.72;1.92;;;6.60;49.10;;;;;;2079755;28;20128;-86
2021/04/28 04:39:42;;;;;;;2.92;1.88;;;6.70;49.80;;;;;;2077775;28;20034;-85
2021/04/28 04:40:44;;;;;;;3.78;1.95;;;6.60;49.10;;;;;;2078549;28;20112;-86
2021/04/28 04:41:44;;;;;;;2.80;1.75;;;6.60;49.10;;;;;;2076890;28;20029;-85
2021/04/28 04:42:45;;;;;;;3.20;1.90;;;6.70;49.10;;;;;;2068687;28;20485;-85
2021/04/28 04:43:46;;;;;;;2.70;1.70;;;6.70;49.10;;;;;;2057720;28;20022;-85
2021/04/28 04:44:47;;;;;;;3.42;1.70;;;6.70;49.00;;;;;;2068869;28;20029;-85
2021/04/28 04:45:47;;;;;;;3.55;1.80;;;6.70;49.00;;;;;;2062331;28;20032;-85
2021/04/28 04:46:48;;;;;;;3.97;2.00;;;6.80;49.00;;;;;;2056424;28;20044;-84
2021/04/28 04:47:49;;;;;;;3.05;1.80;;;6.80;49.00;;;;;;2080090;28;20144;-85
2021/04/28 04:48:49;;;;;;;4.38;2.10;;;6.80;49.00;;;;;;2085730;28;20029;-85
2021/04/28 04:49:50;;;;;;;4.32;2.10;;;6.80;49.00;;;;;;2078955;28;20021;-85
2021/04/28 04:50:51;;;;;;;3.53;1.88;;;6.80;49.00;;;;;;2072704;28;20120;-85
2021/04/28 04:51:51;;;;;;;2.65;1.67;;;6.80;48.90;;;;;;2065144;28;20831;-85
2021/04/28 04:52:52;;;;;;;3.25;2.00;;;6.80;48.90;;;;;;2071152;28;20034;-85
2021/04/28 04:53:52;;;;;;;3.13;1.90;;;6.90;49.00;;;;;;2070991;28;20034;-85
2021/04/28 04:54:53;;;;;;;4.45;1.80;;;6.90;48.90;;;;;;2088543;28;20029;-85
2021/04/28 04:55:54;;;;;;;3.30;2.10;;;6.90;48.90;;;;;;2071955;28;20085;-86
2021/04/28 04:56:56;;;;;;;4.43;2.38;;;6.90;48.90;;;;;;2063665;28;20026;-86
2021/04/28 04:57:57;;;;;;;4.28;1.73;;;6.90;48.90;;;;;;2070047;28;20570;-86
2021/04/28 04:58:57;;;;;;;3.30;1.80;;;6.90;48.80;;;;;;2054886;28;20066;-85
2021/04/28 04:59:58;;;;;;;3.08;2.00;;;6.90;48.80;;;;;;2071017;28;20080;-85
2021/04/28 05:00:59;;;;;;;3.65;2.03;;;7.00;48.80;;;;;;2076934;28;20040;-86
2021/04/28 05:01:59;;;;;;;3.53;2.20;;;7.00;48.80;;;;;;2080583;28;20049;-86
2021/04/28 05:03:00;;;;;;;4.38;2.00;;;7.00;48.80;;;;;;2074546;28;20022;-86
2021/04/28 05:04:00;;;;;;;2.67;1.58;;;7.00;48.80;;;;;;2085314;28;20116;-86
2021/04/28 05:05:01;;;;;;;3.05;1.98;;;7.00;48.70;;;;;;2076176;28;20089;-86
2021/04/28 05:06:02;;;;;;;4.32;2.00;;;7.10;48.80;;;;;;2071992;28;20038;-86
2021/04/28 05:07:02;;;;;;;3.28;1.80;;;7.10;48.70;;;;;;2070992;28;20092;-85
2021/04/28 05:08:04;;;;;;;3.67;1.95;;;7.10;49.30;;;;;;2068170;28;20125;-85
2021/04/28 05:09:05;;;;;;;3.95;1.92;;;7.10;49.30;;;;;;2078481;28;20032;-85
2021/04/28 05:10:07;;;;;;;4.07;1.92;;;7.20;48.70;;;;;;2070288;28;20504;-85
2021/04/28 05:11:08;;;;;;;2.78;1.90;;;7.20;48.60;;;;;;2077503;28;20080;-85
2021/04/28 05:12:09;;;;;;;3.53;1.95;;;7.30;48.60;;;;;;2086381;28;20099;-84
2021/04/28 05:13:10;;;;;;;2.95;1.92;;;7.30;48.50;;;;;;2084726;28;20037;-85
2021/04/28 05:14:11;;;;;;;3.58;2.00;;;7.30;48.50;;;;;;2076771;28;20041;-84
2021/04/28 05:15:12;;;;;;;3.95;1.90;;;7.30;48.40;;;;;;2085544;28;20029;-85
2021/04/28 05:16:13;;;;;;;3.40;1.90;;;7.40;48.40;;;;;;2093284;28;20070;-85
2021/04/28 05:17:14;;;;;;;3.38;1.95;;;7.40;48.30;;;;;;2076607;28;20022;-85
2021/04/28 05:18:14;;;;;;;3.13;1.90;;;7.50;48.20;;;;;;2071797;28;20420;-85
2021/04/28 05:19:15;;;;;;;3.97;2.08;;;7.50;48.10;;;;;;2087256;28;20113;-85
2021/04/28 05:20:16;;;;;;;3.60;2.08;;;7.50;48.00;;;;;;2093867;28;20029;-85
2021/04/28 05:21:17;;;;;;;4.10;2.30;;;7.60;48.00;;;;;;2084878;28;20030;-85
2021/04/28 05:22:22;;;;;;;3.78;1.98;;;7.70;48.00;;;;;;2075977;28;20128;-86
2021/04/28 05:23:23;;;;;;;4.20;2.50;;;7.70;47.90;;;;;;2080167;28;20484;-85
2021/04/28 05:24:23;;;;;;;5.13;2.40;;;7.70;47.90;;;;;;2072800;28;20065;-85
2021/04/28 05:25:25;;;;;;;3.65;2.28;;;7.80;47.80;;;;;;2074373;28;20030;-85